Terminal Aerodrome Forecast
Issued by NWS

Home | Current Version | Previous Version | Text Only | Print | Product List | Glossary On
Versions: 1 2 3 4 5 6 7 8 9 10 11 12 13 14 15
000
FTUS43 KICT 181100
TAFCNU
TAF
KCNU 181132Z 1812/1912 01005KT P6SM SCT300
     FM181600 02014KT P6SM SCT300
     FM182300 07007KT P6SM BKN300
     FM190600 09005KT P6SM BKN300=

USA.gov is the U.S. government's official web portal to all federal, state and local government web resources and services.